Time;durP1;ratioP1;P1;durP2;ratioP2;P2;SDS_P1;SDS_P2;PMS_P1;PMS_P2;Temp;Humidity;BMP_temperature;BMP_pressure;BME280_temperature;BME280_humidity;BME280_pressure;Samples;Min_cycle;Max_cycle;Signal;HPM_P1;HPM_P2
2022/05/18 00:00:37;;;;;;;;;;;;;;;17.66;70.86;101851.38;10490893;28;19974;-79
2022/05/18 00:05:40;;;;;;;;;;;;;;;17.73;71.28;101853.19;10489997;28;19920;-79
2022/05/18 00:10:46;;;;;;;;;;;;;;;17.69;71.54;101847.06;10487225;28;19976;-79
2022/05/18 00:15:48;;;;;;;;;;;;;;;17.59;71.62;101855.66;10490009;28;19943;-79
2022/05/18 00:20:49;;;;;;;;;;;;;;;17.60;71.31;101857.41;10491251;28;19920;-78
2022/05/18 00:25:51;;;;;;;;;;;;;;;17.79;71.07;101852.41;10489800;28;19931;-79
2022/05/18 00:30:53;;;;;;;;;;;;;;;17.86;70.21;101855.09;10489150;28;19925;-79
2022/05/18 00:35:54;;;;;;;;;;;;;;;17.87;70.39;101866.41;10488462;28;19904;-79
2022/05/18 00:40:56;;;;;;;;;;;;;;;17.56;70.86;101872.13;10515325;28;19927;-78
2022/05/18 00:45:59;;;;;;;;;;;;;;;16.86;71.01;101872.88;10528259;28;19920;-78
2022/05/18 00:51:02;;;;;;;;;;;;;;;16.88;71.43;101876.38;10532102;28;19928;-79
2022/05/18 00:56:07;;;;;;;;;;;;;;;16.73;70.69;101871.78;10545446;28;19920;-79
2022/05/18 01:01:08;;;;;;;;;;;;;;;16.75;71.65;101870.09;10530551;28;19920;-78
2022/05/18 01:06:20;;;;;;;;;;;;;;;16.97;72.58;101873.06;10532208;28;19920;-78
2022/05/18 01:11:21;;;;;;;;;;;;;;;16.91;72.82;101873.81;10531837;28;19951;-78
2022/05/18 01:16:25;;;;;;;;;;;;;;;16.98;73.22;101879.16;10534729;28;20022;-79
2022/05/18 01:21:30;;;;;;;;;;;;;;;16.84;73.55;101876.31;10531973;28;19944;-79
2022/05/18 01:26:44;;;;;;;;;;;;;;;17.00;73.51;101880.94;10529414;28;20371;-79
2022/05/18 01:31:54;;;;;;;;;;;;;;;17.10;72.41;101881.94;10531770;28;20011;-79
2022/05/18 01:36:59;;;;;;;;;;;;;;;16.60;72.60;101890.66;10517551;28;20370;-79
2022/05/18 01:42:02;;;;;;;;;;;;;;;16.38;73.70;101885.09;10501602;28;19921;-78
2022/05/18 01:47:04;;;;;;;;;;;;;;;16.11;73.56;101894.16;10471045;28;20364;-78
2022/05/18 01:52:06;;;;;;;;;;;;;;;16.28;74.78;101893.56;10487260;28;19928;-78
2022/05/18 01:57:07;;;;;;;;;;;;;;;16.32;73.27;101896.25;10485043;28;19943;-78
2022/05/18 02:02:10;;;;;;;;;;;;;;;16.02;75.41;101883.56;10499897;28;19928;-78
2022/05/18 02:07:13;;;;;;;;;;;;;;;16.16;76.83;101886.41;10484602;28;20107;-78
2022/05/18 02:12:15;;;;;;;;;;;;;;;16.44;75.17;101886.94;10485254;28;20027;-79
2022/05/18 02:17:17;;;;;;;;;;;;;;;16.44;76.21;101890.41;10500416;28;19927;-79
2022/05/18 02:22:18;;;;;;;;;;;;;;;16.56;75.86;101878.47;10468949;28;19927;-79
2022/05/18 02:27:20;;;;;;;;;;;;;;;16.61;75.36;101887.22;10498432;28;20273;-78
2022/05/18 02:32:22;;;;;;;;;;;;;;;16.52;74.92;101876.66;10483120;28;19921;-79
2022/05/18 02:37:24;;;;;;;;;;;;;;;16.53;75.09;101874.06;10482447;28;19970;-79
2022/05/18 02:42:27;;;;;;;;;;;;;;;16.59;75.01;101865.50;10495318;28;19921;-79
2022/05/18 02:47:29;;;;;;;;;;;;;;;16.71;75.21;101875.22;10484463;28;19927;-79
2022/05/18 02:52:31;;;;;;;;;;;;;;;16.80;74.84;101868.44;10481550;28;19974;-79
2022/05/18 02:57:34;;;;;;;;;;;;;;;16.78;74.68;101870.16;10480919;28;19925;-79
2022/05/18 03:02:36;;;;;;;;;;;;;;;16.89;74.36;101877.25;10492144;28;19920;-79
2022/05/18 03:07:38;;;;;;;;;;;;;;;16.93;74.54;101879.09;10538793;28;19920;-78
2022/05/18 03:12:39;;;;;;;;;;;;;;;16.80;74.00;101878.84;10530829;28;19920;-80
2022/05/18 03:17:41;;;;;;;;;;;;;;;16.74;74.66;101878.75;10534973;28;19920;-79
2022/05/18 03:28:03;;;;;;;;;;;;;;;16.94;73.50;101879.09;10529464;28;19920;-78
2022/05/18 03:33:05;;;;;;;;;;;;;;;16.83;73.83;101878.00;10545730;28;19927;-79
2022/05/18 03:38:06;;;;;;;;;;;;;;;17.02;73.21;101889.63;10529058;28;19973;-78
2022/05/18 03:43:08;;;;;;;;;;;;;;;16.84;73.25;101894.53;10543359;28;19920;-78
2022/05/18 03:48:28;;;;;;;;;;;;;;;16.91;72.85;101896.38;10529044;28;19943;-78
2022/05/18 03:53:29;;;;;;;;;;;;;;;17.16;72.02;101896.78;10532655;28;19956;-78
2022/05/18 03:58:31;;;;;;;;;;;;;;;17.10;72.02;101897.56;10496726;28;19929;-78
2022/05/18 04:03:33;;;;;;;;;;;;;;;17.15;72.13;101905.44;10489126;28;19974;-78
2022/05/18 04:08:39;;;;;;;;;;;;;;;17.01;71.96;101919.13;10526116;28;19967;-79
2022/05/18 04:13:41;;;;;;;;;;;;;;;17.18;72.14;101918.47;10529612;28;19970;-79
2022/05/18 04:18:43;;;;;;;;;;;;;;;17.19;71.64;101930.66;10524705;28;19970;-79
2022/05/18 04:23:44;;;;;;;;;;;;;;;17.20;71.77;101927.19;10526105;28;20302;-79
2022/05/18 04:28:46;;;;;;;;;;;;;;;17.21;71.94;101932.44;10499884;28;20291;-78
2022/05/18 04:33:47;;;;;;;;;;;;;;;17.44;71.30;101934.47;10483754;28;19927;-79
2022/05/18 04:38:49;;;;;;;;;;;;;;;17.44;71.04;101940.59;10482539;28;20256;-79
2022/05/18 04:43:50;;;;;;;;;;;;;;;17.75;70.43;101935.78;10484974;28;20402;-79
2022/05/18 04:48:52;;;;;;;;;;;;;;;17.73;70.44;101941.81;10480983;28;19920;-78
2022/05/18 04:53:56;;;;;;;;;;;;;;;17.98;69.98;101948.25;10481322;28;19925;-79
2022/05/18 04:58:58;;;;;;;;;;;;;;;17.90;70.26;101945.50;10518824;28;19943;-79
2022/05/18 05:04:02;;;;;;;;;;;;;;;18.21;69.84;101950.22;10519521;28;19920;-79
2022/05/18 05:09:03;;;;;;;;;;;;;;;18.16;69.70;101967.56;10518173;28;19928;-78
2022/05/18 05:14:05;;;;;;;;;;;;;;;18.44;69.19;101957.41;10510979;28;19971;-79
2022/05/18 05:19:07;;;;;;;;;;;;;;;18.61;68.98;101958.47;10514398;28;19996;-77
2022/05/18 05:24:09;;;;;;;;;;;;;;;18.80;67.68;101956.03;10495961;28;19920;-78
2022/05/18 05:29:11;;;;;;;;;;;;;;;19.30;66.76;101957.28;10513004;28;19924;-79
2022/05/18 05:34:13;;;;;;;;;;;;;;;19.37;66.23;101952.97;10511030;28;19921;-79
2022/05/18 05:39:14;;;;;;;;;;;;;;;19.52;65.17;101962.63;10506455;28;19924;-79
2022/05/18 05:44:16;;;;;;;;;;;;;;;19.84;64.90;101967.16;10522780;28;19920;-78
2022/05/18 05:49:45;;;;;;;;;;;;;;;20.06;64.83;101960.31;10520803;28;19928;-79
2022/05/18 05:54:47;;;;;;;;;;;;;;;20.06;63.27;101965.56;10487493;28;20294;-76
2022/05/18 05:59:56;;;;;;;;;;;;;;;20.32;62.16;101964.72;10623268;27;19912;-78
2022/05/18 06:04:58;;;;;;;;;;;;;;;20.65;61.33;101955.19;10616458;28;19924;-78
2022/05/18 06:09:59;;;;;;;;;;;;;;;20.64;60.80;101958.69;10614888;28;20397;-76
2022/05/18 06:15:01;;;;;;;;;;;;;;;21.10;60.57;101958.72;10617633;27;19923;-79
2022/05/18 06:20:03;;;;;;;;;;;;;;;21.33;59.32;101963.03;10592897;27;19928;-79
2022/05/18 06:25:05;;;;;;;;;;;;;;;21.46;59.35;101967.38;10572882;28;19932;-79
2022/05/18 06:30:07;;;;;;;;;;;;;;;21.33;59.82;101970.91;10582016;27;19931;-79
2022/05/18 06:35:09;;;;;;;;;;;;;;;21.65;58.13;101962.09;10575566;28;19924;-80
2022/05/18 06:40:11;;;;;;;;;;;;;;;21.91;57.30;101963.75;10542337;28;20383;-78
2022/05/18 06:45:13;;;;;;;;;;;;;;;22.18;55.82;101963.59;10568142;28;20094;-80
2022/05/18 06:50:15;;;;;;;;;;;;;;;22.80;54.34;101963.22;10570752;28;20367;-80
2022/05/18 06:55:16;;;;;;;;;;;;;;;23.10;53.54;101961.19;10567617;28;20379;-79
2022/05/18 07:00:18;;;;;;;;;;;;;;;23.41;52.57;101965.28;10571466;27;19931;-81
2022/05/18 07:05:23;;;;;;;;;;;;;;;23.38;51.41;101966.19;10568724;28;20478;-78
2022/05/18 07:10:27;;;;;;;;;;;;;;;23.73;50.49;101964.03;10543272;28;19928;-79
2022/05/18 07:15:28;;;;;;;;;;;;;;;24.29;51.05;101977.38;10539538;28;19928;-79
2022/05/18 07:20:30;;;;;;;;;;;;;;;24.21;49.00;101977.47;10568547;28;19931;-77
2022/05/18 07:25:31;;;;;;;;;;;;;;;24.29;48.43;101982.63;10553002;28;19931;-77
2022/05/18 07:30:33;;;;;;;;;;;;;;;24.36;47.93;101994.81;10538994;28;19928;-78
2022/05/18 07:35:34;;;;;;;;;;;;;;;24.58;48.80;101983.94;10542569;28;19928;-79
2022/05/18 07:40:36;;;;;;;;;;;;;;;25.17;47.60;101978.56;10536542;28;19964;-79
2022/05/18 07:45:37;;;;;;;;;;;;;;;25.13;47.89;101990.09;10534171;28;19951;-81
2022/05/18 07:50:39;;;;;;;;;;;;;;;25.37;47.92;101989.66;10547680;27;19973;-79
2022/05/18 07:55:41;;;;;;;;;;;;;;;25.95;46.37;101979.72;10538384;27;20374;-76
2022/05/18 08:00:42;;;;;;;;;;;;;;;25.89;47.64;101986.00;10528390;28;19932;-78
2022/05/18 08:05:45;;;;;;;;;;;;;;;26.14;44.76;101996.06;10529377;28;19932;-78
2022/05/18 08:16:08;;;;;;;;;;;;;;;25.46;46.84;102002.69;10526387;28;19934;-79
2022/05/18 08:21:10;;;;;;;;;;;;;;;26.00;45.36;102006.03;10530044;28;19935;-81
2022/05/18 08:26:11;;;;;;;;;;;;;;;26.52;44.34;102004.88;10516353;28;19932;-79
2022/05/18 08:31:17;;;;;;;;;;;;;;;27.10;43.51;101999.06;10511005;28;19924;-80
2022/05/18 08:36:25;;;;;;;;;;;;;;;27.66;41.54;102006.41;10541326;28;19924;-81
2022/05/18 08:41:28;;;;;;;;;;;;;;;27.97;42.45;102005.50;10530472;28;19925;-80
2022/05/18 08:46:53;;;;;;;;;;;;;;;27.88;41.80;102011.06;10533405;27;19928;-80
2022/05/18 08:52:11;;;;;;;;;;;;;;;27.60;41.20;102021.56;10516897;28;19924;-81
2022/05/18 08:57:17;;;;;;;;;;;;;;;27.23;43.57;102012.84;10523308;28;19924;-81
2022/05/18 09:02:23;;;;;;;;;;;;;;;28.53;39.81;102018.84;10538080;28;20260;-80
2022/05/18 09:07:28;;;;;;;;;;;;;;;28.39;39.85;102014.84;10536680;28;19934;-81
2022/05/18 09:12:30;;;;;;;;;;;;;;;28.38;39.91;102015.75;10536606;28;19970;-81
2022/05/18 09:17:47;;;;;;;;;;;;;;;28.53;39.16;102005.59;10536344;28;19977;-79
2022/05/18 09:23:07;;;;;;;;;;;;;;;28.75;39.27;101998.69;10534664;28;19924;-80
2022/05/18 09:28:28;;;;;;;;;;;;;;;27.91;38.80;102016.28;10593077;27;19923;-80
2022/05/18 09:33:40;;;;;;;;;;;;;;;28.71;40.56;102017.41;10534865;28;20333;-81
2022/05/18 09:39:05;;;;;;;;;;;;;;;28.75;39.36;102013.72;10547097;28;20333;-79
2022/05/18 09:44:19;;;;;;;;;;;;;;;28.64;40.32;102008.75;10559843;28;20035;-80
2022/05/18 09:49:23;;;;;;;;;;;;;;;28.53;39.99;102016.19;10575872;28;19996;-79
2022/05/18 09:54:25;;;;;;;;;;;;;;;28.64;39.23;102019.34;10551463;28;19935;-81
2022/05/18 09:59:30;;;;;;;;;;;;;;;28.90;38.88;102018.50;10535767;28;19928;-80
2022/05/18 10:09:59;;;;;;;;;;;;;;;28.69;40.69;102005.94;10556431;28;19931;-80
2022/05/18 10:15:09;;;;;;;;;;;;;;;28.52;38.19;102022.41;10595960;27;19923;-80
2022/05/18 10:20:33;;;;;;;;;;;;;;;28.95;39.17;102010.41;10592445;27;19924;-80
2022/05/18 10:25:55;;;;;;;;;;;;;;;28.55;41.23;102009.06;10534226;28;19934;-79
2022/05/18 10:31:05;;;;;;;;;;;;;;;29.54;39.13;102001.28;10533200;28;19924;-79
2022/05/18 10:36:09;;;;;;;;;;;;;;;29.29;37.25;101998.63;10537156;28;19935;-80
2022/05/18 10:41:13;;;;;;;;;;;;;;;28.20;38.70;102013.69;10533765;28;19924;-79
2022/05/18 10:46:19;;;;;;;;;;;;;;;29.00;38.13;102002.28;10543325;28;19928;-80
2022/05/18 10:51:36;;;;;;;;;;;;;;;29.35;36.92;101990.47;10579512;28;20276;-81
2022/05/18 10:56:38;;;;;;;;;;;;;;;28.59;38.69;101993.00;10540554;28;19928;-79
2022/05/18 11:01:46;;;;;;;;;;;;;;;29.32;38.21;101976.44;10544341;28;19968;-81
2022/05/18 11:06:47;;;;;;;;;;;;;;;29.28;39.14;101975.66;10564803;28;19923;-79
2022/05/18 11:11:57;;;;;;;;;;;;;;;30.01;38.04;101975.66;10583043;28;19924;-80
2022/05/18 11:17:18;;;;;;;;;;;;;;;30.29;34.53;101971.91;10564389;28;19984;-80
2022/05/18 11:22:23;;;;;;;;;;;;;;;28.61;38.24;101975.25;10548271;28;20003;-79
2022/05/18 11:27:33;;;;;;;;;;;;;;;29.34;37.97;101962.19;10545628;28;20286;-78
2022/05/18 11:32:42;;;;;;;;;;;;;;;30.51;35.52;101958.59;10569246;28;19949;-81
2022/05/18 11:38:03;;;;;;;;;;;;;;;29.73;36.39;101953.66;10550135;28;19928;-79
2022/05/18 11:43:33;;;;;;;;;;;;;;;29.60;35.39;101953.25;10540511;28;19970;-80
2022/05/18 11:48:34;;;;;;;;;;;;;;;29.43;34.34;101947.69;10519892;28;20448;-77
2022/05/18 11:53:51;;;;;;;;;;;;;;;29.36;34.77;101957.69;10538546;28;19973;-78
2022/05/18 11:59:10;;;;;;;;;;;;;;;29.34;34.84;101954.22;10549495;28;19928;-78
2022/05/18 12:04:38;;;;;;;;;;;;;;;29.23;34.72;101956.34;10561773;28;20356;-79
2022/05/18 12:09:53;;;;;;;;;;;;;;;29.53;34.70;101942.91;10529808;28;19924;-78
2022/05/18 12:15:14;;;;;;;;;;;;;;;29.38;34.72;101945.22;10560125;28;19928;-80
2022/05/18 12:20:25;;;;;;;;;;;;;;;29.02;34.90;101942.94;10566011;28;19931;-79
2022/05/18 12:25:29;;;;;;;;;;;;;;;29.06;35.07;101943.72;10550309;28;19924;-79
2022/05/18 12:30:33;;;;;;;;;;;;;;;29.62;33.73;101942.56;10540915;28;20765;-81
2022/05/18 12:35:36;;;;;;;;;;;;;;;29.10;35.11;101942.69;10564709;28;19931;-80
2022/05/18 12:40:48;;;;;;;;;;;;;;;29.94;34.71;101948.47;10541037;28;20379;-81
2022/05/18 12:45:55;;;;;;;;;;;;;;;30.05;34.46;101951.53;10538372;28;19924;-80
2022/05/18 12:51:08;;;;;;;;;;;;;;;30.36;33.81;101944.13;10538376;28;19928;-80
2022/05/18 12:56:23;;;;;;;;;;;;;;;28.77;36.67;101950.91;10578176;28;19949;-80
2022/05/18 13:01:28;;;;;;;;;;;;;;;30.37;33.60;101952.03;10597851;27;20325;-80
2022/05/18 13:06:36;;;;;;;;;;;;;;;30.87;34.75;101942.00;10582850;27;19951;-81
2022/05/18 13:11:37;;;;;;;;;;;;;;;30.39;34.33;101955.50;10533259;28;20375;-80
2022/05/18 13:16:59;;;;;;;;;;;;;;;30.15;33.95;101952.06;10539748;28;20378;-82
2022/05/18 13:22:16;;;;;;;;;;;;;;;29.74;35.52;101952.75;10527098;28;19931;-81
2022/05/18 13:27:20;;;;;;;;;;;;;;;30.06;34.98;101942.66;10533400;28;19928;-82
2022/05/18 13:32:23;;;;;;;;;;;;;;;30.17;34.65;101946.69;10534783;28;20015;-82
2022/05/18 13:37:28;;;;;;;;;;;;;;;30.26;36.00;101938.34;10529993;28;19958;-79
2022/05/18 13:42:55;;;;;;;;;;;;;;;29.54;37.24;101944.66;10521748;28;19969;-78
2022/05/18 13:47:58;;;;;;;;;;;;;;;29.66;38.16;101938.00;10543979;28;19928;-79
2022/05/18 13:58:26;;;;;;;;;;;;;;;30.19;36.65;101932.41;10522027;28;19928;-78
2022/05/18 14:03:34;;;;;;;;;;;;;;;29.96;39.47;101935.09;10537400;28;19924;-79
2022/05/18 14:08:38;;;;;;;;;;;;;;;29.90;37.24;101928.19;10537505;28;20284;-79
2022/05/18 14:13:54;;;;;;;;;;;;;;;29.79;37.03;101920.66;10537809;28;19970;-79
2022/05/18 14:19:21;;;;;;;;;;;;;;;30.14;38.49;101921.09;10539938;28;20267;-79
2022/05/18 14:24:46;;;;;;;;;;;;;;;29.96;41.71;101913.84;10545141;28;20015;-78
2022/05/18 14:30:00;;;;;;;;;;;;;;;29.64;40.85;101913.31;10538328;28;19970;-79
2022/05/18 14:35:07;;;;;;;;;;;;;;;29.35;44.83;101916.16;10534870;28;20341;-79
2022/05/18 14:40:11;;;;;;;;;;;;;;;28.86;43.48;101915.22;10533585;28;19935;-79
2022/05/18 14:45:19;;;;;;;;;;;;;;;28.81;45.36;101912.78;10528968;28;19974;-78
2022/05/18 14:50:35;;;;;;;;;;;;;;;28.92;43.84;101917.69;10529056;28;19938;-78
2022/05/18 14:55:42;;;;;;;;;;;;;;;29.15;43.84;101918.66;10544374;28;19931;-78
2022/05/18 15:00:47;;;;;;;;;;;;;;;28.99;44.32;101921.84;10536509;28;19928;-79
2022/05/18 15:05:50;;;;;;;;;;;;;;;28.24;44.16;101918.16;10530795;28;20394;-79
2022/05/18 15:10:59;;;;;;;;;;;;;;;28.61;45.52;101911.63;10508487;28;19931;-79
2022/05/18 15:16:08;;;;;;;;;;;;;;;28.55;47.06;101916.28;10505304;28;19928;-80
2022/05/18 15:21:17;;;;;;;;;;;;;;;28.58;45.07;101905.56;10519829;28;19948;-78
2022/05/18 15:26:21;;;;;;;;;;;;;;;28.52;44.33;101911.94;10541489;28;19951;-78
2022/05/18 15:31:28;;;;;;;;;;;;;;;27.99;44.75;101920.69;10586254;28;19931;-78
2022/05/18 15:36:32;;;;;;;;;;;;;;;28.12;43.49;101914.13;10587783;28;19924;-77
2022/05/18 15:41:34;;;;;;;;;;;;;;;27.98;47.44;101916.31;10586402;28;19924;-77
2022/05/18 15:46:39;;;;;;;;;;;;;;;27.66;45.95;101915.53;10571171;28;19924;-77
2022/05/18 15:51:57;;;;;;;;;;;;;;;27.85;46.60;101916.69;10545662;28;19924;-78
2022/05/18 15:56:58;;;;;;;;;;;;;;;27.70;48.26;101917.16;10585073;28;20420;-77
2022/05/18 16:02:00;;;;;;;;;;;;;;;27.69;46.52;101911.03;10540146;28;20386;-78
2022/05/18 16:07:02;;;;;;;;;;;;;;;27.64;45.77;101912.06;10505851;28;19991;-76
2022/05/18 16:12:04;;;;;;;;;;;;;;;27.57;45.59;101907.88;10517186;28;20386;-78
2022/05/18 16:17:05;;;;;;;;;;;;;;;27.74;44.83;101907.34;10521569;28;19930;-77
2022/05/18 16:22:10;;;;;;;;;;;;;;;27.79;45.60;101906.31;10585616;28;19967;-78
2022/05/18 16:27:32;;;;;;;;;;;;;;;27.58;46.06;101897.22;10585144;27;19931;-78
2022/05/18 16:32:34;;;;;;;;;;;;;;;27.58;46.87;101897.22;10541745;28;20040;-77
2022/05/18 16:37:35;;;;;;;;;;;;;;;27.68;46.92;101905.75;10526973;28;19924;-77
2022/05/18 16:42:38;;;;;;;;;;;;;;;27.33;47.30;101907.63;10515176;28;19936;-79
2022/05/18 16:47:42;;;;;;;;;;;;;;;27.59;48.02;101906.03;10500027;28;20441;-77
2022/05/18 16:52:44;;;;;;;;;;;;;;;27.41;48.54;101895.06;10530437;28;19924;-77
2022/05/18 16:57:46;;;;;;;;;;;;;;;27.41;48.60;101900.34;10550361;28;19923;-77
2022/05/18 17:02:47;;;;;;;;;;;;;;;27.29;47.47;101895.41;10526385;28;19932;-77
2022/05/18 17:08:43;;;;;;;;;;;;;;;27.16;48.35;101895.75;10508401;28;19924;-78
2022/05/18 17:13:24;;;;;;;;;;;;;;;27.00;51.14;101890.03;10523297;28;20370;-77
2022/05/18 17:18:28;;;;;;;;;;;;;;;26.82;50.80;101899.34;10541200;28;19950;-78
2022/05/18 17:23:35;;;;;;;;;;;;;;;26.41;53.04;101888.91;10541527;28;19969;-77
2022/05/18 17:28:38;;;;;;;;;;;;;;;26.15;53.14;101900.09;10540966;28;20329;-78
2022/05/18 17:33:40;;;;;;;;;;;;;;;25.87;52.93;101898.06;10539383;28;20321;-77
2022/05/18 17:38:51;;;;;;;;;;;;;;;25.97;53.54;101896.94;10525445;28;19924;-77
2022/05/18 17:43:53;;;;;;;;;;;;;;;25.95;53.52;101898.72;10538948;28;19932;-78
2022/05/18 17:48:55;;;;;;;;;;;;;;;25.88;54.46;101904.19;10550548;28;19925;-78
2022/05/18 17:53:56;;;;;;;;;;;;;;;25.82;53.41;101907.84;10497062;28;19974;-77
2022/05/18 17:58:58;;;;;;;;;;;;;;;25.63;54.09;101897.69;10498075;28;19928;-78
2022/05/18 18:04:01;;;;;;;;;;;;;;;25.61;54.35;101904.78;10539625;28;19928;-78
2022/05/18 18:09:02;;;;;;;;;;;;;;;25.22;55.13;101896.75;10538430;28;19925;-76
2022/05/18 18:14:05;;;;;;;;;;;;;;;25.14;55.94;101902.19;10539183;28;19924;-77
2022/05/18 18:19:08;;;;;;;;;;;;;;;24.95;56.71;101904.28;10538724;28;19932;-77
2022/05/18 18:24:14;;;;;;;;;;;;;;;24.55;58.13;101902.31;10539045;28;20295;-77
2022/05/18 18:29:17;;;;;;;;;;;;;;;24.53;57.90;101906.78;10539958;28;19928;-77
2022/05/18 18:34:19;;;;;;;;;;;;;;;24.24;58.36;101903.69;10538309;28;19931;-77
2022/05/18 18:39:23;;;;;;;;;;;;;;;23.82;58.76;101911.31;10539635;28;20282;-78
2022/05/18 18:44:26;;;;;;;;;;;;;;;23.57;58.85;101914.25;10538206;28;19932;-79
2022/05/18 18:49:28;;;;;;;;;;;;;;;23.36;58.92;101912.72;10537051;28;19924;-82
2022/05/18 18:54:48;;;;;;;;;;;;;;;22.96;59.60;101910.53;10555875;28;19924;-85
2022/05/18 18:59:54;;;;;;;;;;;;;;;22.86;59.41;101908.84;10536875;28;19959;-81
2022/05/18 19:04:56;;;;;;;;;;;;;;;22.71;60.78;101902.00;10541694;28;19924;-79
2022/05/18 19:09:59;;;;;;;;;;;;;;;22.56;60.77;101903.00;10552231;28;20455;-81
2022/05/18 19:15:04;;;;;;;;;;;;;;;22.51;60.79;101908.28;10546569;28;19924;-80
2022/05/18 19:20:07;;;;;;;;;;;;;;;22.46;61.12;101910.94;10540754;28;19969;-80
2022/05/18 19:25:10;;;;;;;;;;;;;;;22.50;61.66;101904.78;10533852;28;20359;-79
2022/05/18 19:30:13;;;;;;;;;;;;;;;22.07;62.11;101905.06;10552257;28;20432;-79
2022/05/18 19:35:15;;;;;;;;;;;;;;;22.08;61.75;101903.31;10547051;28;19928;-80
2022/05/18 19:40:17;;;;;;;;;;;;;;;21.84;62.75;101911.31;10545399;28;19969;-80
2022/05/18 19:45:20;;;;;;;;;;;;;;;21.85;62.64;101905.19;10556079;28;19927;-80
2022/05/18 19:50:23;;;;;;;;;;;;;;;21.94;62.64;101911.25;10551048;28;19931;-79
2022/05/18 19:55:25;;;;;;;;;;;;;;;22.39;61.17;101913.63;10564734;28;19924;-79
2022/05/18 20:00:32;;;;;;;;;;;;;;;22.00;62.12;101913.88;10595505;28;19973;-79
2022/05/18 20:05:34;;;;;;;;;;;;;;;21.71;63.50;101904.38;10611147;27;19947;-80
2022/05/18 20:10:36;;;;;;;;;;;;;;;21.34;64.75;101904.47;10544179;28;19969;-81
2022/05/18 20:15:38;;;;;;;;;;;;;;;21.25;65.03;101897.53;10547049;28;20382;-80
2022/05/18 20:20:40;;;;;;;;;;;;;;;21.17;64.85;101902.78;10531563;28;20264;-80
2022/05/18 20:25:45;;;;;;;;;;;;;;;21.07;65.40;101906.31;10556927;28;20014;-80
2022/05/18 20:30:50;;;;;;;;;;;;;;;21.07;65.60;101906.31;10574027;28;19946;-80
2022/05/18 20:35:53;;;;;;;;;;;;;;;21.13;65.60;101906.28;10543161;28;19963;-79
2022/05/18 20:40:55;;;;;;;;;;;;;;;21.15;65.66;101904.53;10534373;28;19939;-79
2022/05/18 20:45:58;;;;;;;;;;;;;;;20.83;66.50;101902.84;10508785;28;19928;-80
2022/05/18 20:51:00;;;;;;;;;;;;;;;20.84;66.43;101915.06;10546694;28;20391;-80
2022/05/18 20:56:02;;;;;;;;;;;;;;;20.63;67.05;101915.03;10556326;28;19924;-79
2022/05/18 21:01:05;;;;;;;;;;;;;;;20.81;66.99;101906.34;10545391;28;19957;-80
2022/05/18 21:06:07;;;;;;;;;;;;;;;20.88;65.59;101911.59;10542777;28;20298;-79
2022/05/18 21:11:12;;;;;;;;;;;;;;;20.60;67.02;101908.91;10542465;28;19935;-80
2022/05/18 21:16:13;;;;;;;;;;;;;;;20.67;65.75;101911.53;10527962;28;19924;-79
2022/05/18 21:21:20;;;;;;;;;;;;;;;20.85;65.67;101906.34;10522657;28;19925;-79
2022/05/18 21:26:23;;;;;;;;;;;;;;;20.71;66.82;101908.06;10533993;28;19924;-78
2022/05/18 21:31:27;;;;;;;;;;;;;;;20.52;66.31;101915.91;10540095;28;19960;-79
2022/05/18 21:36:28;;;;;;;;;;;;;;;20.58;66.72;101902.84;10540725;28;19931;-79
2022/05/18 21:41:32;;;;;;;;;;;;;;;19.84;68.37;101905.31;10539727;28;19959;-78
2022/05/18 21:46:42;;;;;;;;;;;;;;;20.18;67.64;101905.41;10531625;28;19977;-79
2022/05/18 21:51:44;;;;;;;;;;;;;;;20.03;68.73;101892.28;10529549;28;19967;-79
2022/05/18 21:56:48;;;;;;;;;;;;;;;20.10;68.82;101886.19;10517576;28;20298;-78
2022/05/18 22:01:50;;;;;;;;;;;;;;;19.89;68.39;101885.28;10535712;28;19928;-79
2022/05/18 22:06:51;;;;;;;;;;;;;;;19.63;69.15;101883.41;10540861;28;19924;-79
2022/05/18 22:11:55;;;;;;;;;;;;;;;19.51;70.71;101880.75;10558536;28;19924;-79
2022/05/18 22:16:57;;;;;;;;;;;;;;;19.59;69.68;101876.44;10530727;28;19925;-78
2022/05/18 22:22:00;;;;;;;;;;;;;;;19.51;69.21;101872.91;10535011;28;19928;-78
2022/05/18 22:27:04;;;;;;;;;;;;;;;19.48;69.79;101863.31;10537616;28;20322;-79
2022/05/18 22:32:10;;;;;;;;;;;;;;;19.35;71.18;101858.91;10537415;28;19924;-79
2022/05/18 22:37:12;;;;;;;;;;;;;;;19.13;71.03;101850.97;10538945;28;19989;-79
2022/05/18 22:42:19;;;;;;;;;;;;;;;18.74;72.93;101846.31;10544646;28;20424;-79
2022/05/18 22:47:23;;;;;;;;;;;;;;;18.39;74.54;101840.84;10545780;28;20394;-79
2022/05/18 22:52:25;;;;;;;;;;;;;;;18.53;72.66;101829.66;10545301;28;19950;-79
2022/05/18 22:57:33;;;;;;;;;;;;;;;18.56;71.54;101821.84;10539326;28;19970;-79
2022/05/18 23:02:34;;;;;;;;;;;;;;;18.45;74.22;101823.50;10545171;28;19969;-79
2022/05/18 23:07:36;;;;;;;;;;;;;;;18.37;73.90;101819.09;10545001;28;19959;-79
2022/05/18 23:12:38;;;;;;;;;;;;;;;18.27;73.57;101819.00;10545717;28;19924;-79
2022/05/18 23:17:41;;;;;;;;;;;;;;;18.12;73.64;101815.41;10544324;28;19924;-79
2022/05/18 23:28:03;;;;;;;;;;;;;;;18.01;73.83;101802.28;10544846;28;19923;-79
2022/05/18 23:33:05;;;;;;;;;;;;;;;18.03;73.60;101800.56;10560469;28;20387;-79
2022/05/18 23:38:07;;;;;;;;;;;;;;;18.13;73.03;101790.22;10560134;28;20375;-79
2022/05/18 23:43:08;;;;;;;;;;;;;;;17.84;74.25;101790.75;10543321;28;20346;-79
2022/05/18 23:48:11;;;;;;;;;;;;;;;17.77;74.28;101777.66;10543329;28;20023;-79
2022/05/18 23:53:16;;;;;;;;;;;;;;;17.82;74.87;101772.50;10581410;28;20393;-79
2022/05/18 23:58:17;;;;;;;;;;;;;;;17.93;74.63;101772.59;10569442;28;19932;-79
